sensor_id;sensor_type;location;lat;lon;timestamp;temperature;humidity
28336;DHT22;15592;53.656;7.276;2023-04-24T00:01:28;11.20;99.90
28336;DHT22;15592;53.656;7.276;2023-04-24T00:03:55;11.20;99.90
28336;DHT22;15592;53.656;7.276;2023-04-24T00:06:25;11.20;99.90
28336;DHT22;15592;53.656;7.276;2023-04-24T00:09:02;11.10;99.90
28336;DHT22;15592;53.656;7.276;2023-04-24T00:11:28;11.20;99.90
28336;DHT22;15592;53.656;7.276;2023-04-24T00:13:54;11.20;99.90
28336;DHT22;15592;53.656;7.276;2023-04-24T00:16:20;11.10;99.90
28336;DHT22;15592;53.656;7.276;2023-04-24T00:18:45;11.10;99.90
28336;DHT22;15592;53.656;7.276;2023-04-24T00:21:13;11.10;99.90
28336;DHT22;15592;53.656;7.276;2023-04-24T00:23:39;11.20;99.90
28336;DHT22;15592;53.656;7.276;2023-04-24T00:26:04;11.20;99.90
28336;DHT22;15592;53.656;7.276;2023-04-24T00:28:30;11.20;99.90
28336;DHT22;15592;53.656;7.276;2023-04-24T00:30:55;11.20;99.90
28336;DHT22;15592;53.656;7.276;2023-04-24T00:33:21;11.20;99.90
28336;DHT22;15592;53.656;7.276;2023-04-24T00:35:47;11.20;99.90
28336;DHT22;15592;53.656;7.276;2023-04-24T00:38:12;11.20;99.90
28336;DHT22;15592;53.656;7.276;2023-04-24T00:40:38;11.20;99.90
28336;DHT22;15592;53.656;7.276;2023-04-24T00:43:03;11.20;99.90
28336;DHT22;15592;53.656;7.276;2023-04-24T00:45:29;11.20;99.90
28336;DHT22;15592;53.656;7.276;2023-04-24T00:47:57;11.20;99.90
28336;DHT22;15592;53.656;7.276;2023-04-24T00:50:24;11.20;99.90
28336;DHT22;15592;53.656;7.276;2023-04-24T00:52:50;11.20;99.90
28336;DHT22;15592;53.656;7.276;2023-04-24T00:55:16;11.20;99.90
28336;DHT22;15592;53.656;7.276;2023-04-24T00:57:43;11.20;99.90
28336;DHT22;15592;53.656;7.276;2023-04-24T01:00:10;11.20;99.90
28336;DHT22;15592;53.656;7.276;2023-04-24T01:02:37;11.20;99.90
28336;DHT22;15592;53.656;7.276;2023-04-24T01:05:07;11.20;99.90
28336;DHT22;15592;53.656;7.276;2023-04-24T01:07:33;11.20;99.90
28336;DHT22;15592;53.656;7.276;2023-04-24T01:09:59;11.20;99.90
28336;DHT22;15592;53.656;7.276;2023-04-24T01:12:25;11.20;99.90
28336;DHT22;15592;53.656;7.276;2023-04-24T01:14:51;11.20;99.90
28336;DHT22;15592;53.656;7.276;2023-04-24T01:17:16;11.20;99.90
28336;DHT22;15592;53.656;7.276;2023-04-24T01:19:42;11.10;99.90
28336;DHT22;15592;53.656;7.276;2023-04-24T01:22:14;11.10;99.90
28336;DHT22;15592;53.656;7.276;2023-04-24T01:24:41;11.00;99.90
28336;DHT22;15592;53.656;7.276;2023-04-24T01:27:08;10.90;99.90
28336;DHT22;15592;53.656;7.276;2023-04-24T01:29:35;10.90;99.90
28336;DHT22;15592;53.656;7.276;2023-04-24T01:32:02;10.80;99.90
28336;DHT22;15592;53.656;7.276;2023-04-24T01:34:28;10.60;99.90
28336;DHT22;15592;53.656;7.276;2023-04-24T01:36:53;10.50;99.90
28336;DHT22;15592;53.656;7.276;2023-04-24T01:39:19;10.40;99.90
28336;DHT22;15592;53.656;7.276;2023-04-24T01:41:46;10.30;99.90
28336;DHT22;15592;53.656;7.276;2023-04-24T01:44:12;10.30;99.90
28336;DHT22;15592;53.656;7.276;2023-04-24T01:46:38;10.30;99.90
28336;DHT22;15592;53.656;7.276;2023-04-24T01:49:03;10.30;99.90
28336;DHT22;15592;53.656;7.276;2023-04-24T01:51:29;10.20;99.90
28336;DHT22;15592;53.656;7.276;2023-04-24T01:53:55;10.20;99.90
28336;DHT22;15592;53.656;7.276;2023-04-24T01:56:22;10.10;99.90
28336;DHT22;15592;53.656;7.276;2023-04-24T01:58:49;10.10;99.90
28336;DHT22;15592;53.656;7.276;2023-04-24T02:01:19;10.10;99.90
28336;DHT22;15592;53.656;7.276;2023-04-24T02:03:45;10.10;99.90
28336;DHT22;15592;53.656;7.276;2023-04-24T02:06:11;10.10;99.90
28336;DHT22;15592;53.656;7.276;2023-04-24T02:08:36;10.10;99.90
28336;DHT22;15592;53.656;7.276;2023-04-24T02:11:02;10.00;99.90
28336;DHT22;15592;53.656;7.276;2023-04-24T02:13:28;10.00;99.90
28336;DHT22;15592;53.656;7.276;2023-04-24T02:15:54;10.00;99.90
28336;DHT22;15592;53.656;7.276;2023-04-24T02:18:19;10.00;99.90
28336;DHT22;15592;53.656;7.276;2023-04-24T02:20:45;10.00;99.90
28336;DHT22;15592;53.656;7.276;2023-04-24T02:23:11;10.00;99.90
28336;DHT22;15592;53.656;7.276;2023-04-24T02:25:36;10.00;99.90
28336;DHT22;15592;53.656;7.276;2023-04-24T02:28:02;10.00;99.90
28336;DHT22;15592;53.656;7.276;2023-04-24T02:30:28;10.00;99.90
28336;DHT22;15592;53.656;7.276;2023-04-24T02:32:53;9.90;99.90
28336;DHT22;15592;53.656;7.276;2023-04-24T02:35:19;9.90;99.90
28336;DHT22;15592;53.656;7.276;2023-04-24T02:37:45;9.90;99.90
28336;DHT22;15592;53.656;7.276;2023-04-24T02:40:11;9.90;99.90
28336;DHT22;15592;53.656;7.276;2023-04-24T02:42:37;9.90;99.90
28336;DHT22;15592;53.656;7.276;2023-04-24T02:45:02;9.90;99.90
28336;DHT22;15592;53.656;7.276;2023-04-24T02:47:28;10.00;99.90
28336;DHT22;15592;53.656;7.276;2023-04-24T02:49:54;10.00;99.90
28336;DHT22;15592;53.656;7.276;2023-04-24T02:52:19;10.00;99.90
28336;DHT22;15592;53.656;7.276;2023-04-24T02:54:45;9.90;99.90
28336;DHT22;15592;53.656;7.276;2023-04-24T02:57:10;10.00;99.90
28336;DHT22;15592;53.656;7.276;2023-04-24T02:59:36;10.00;99.90
28336;DHT22;15592;53.656;7.276;2023-04-24T03:02:01;10.00;99.90
28336;DHT22;15592;53.656;7.276;2023-04-24T03:04:27;10.00;99.90
28336;DHT22;15592;53.656;7.276;2023-04-24T03:06:53;10.00;99.90
28336;DHT22;15592;53.656;7.276;2023-04-24T03:09:20;10.00;99.90
28336;DHT22;15592;53.656;7.276;2023-04-24T03:11:46;9.90;99.90
28336;DHT22;15592;53.656;7.276;2023-04-24T03:14:11;9.90;99.90
28336;DHT22;15592;53.656;7.276;2023-04-24T03:16:37;10.00;99.90
28336;DHT22;15592;53.656;7.276;2023-04-24T03:19:03;9.90;99.90
28336;DHT22;15592;53.656;7.276;2023-04-24T03:21:28;10.00;99.90
28336;DHT22;15592;53.656;7.276;2023-04-24T03:23:54;10.00;99.90
28336;DHT22;15592;53.656;7.276;2023-04-24T03:26:20;10.00;99.90
28336;DHT22;15592;53.656;7.276;2023-04-24T03:28:45;10.00;99.90
28336;DHT22;15592;53.656;7.276;2023-04-24T03:31:11;10.00;99.90
28336;DHT22;15592;53.656;7.276;2023-04-24T03:33:37;10.00;99.90
28336;DHT22;15592;53.656;7.276;2023-04-24T03:36:02;10.00;99.90
28336;DHT22;15592;53.656;7.276;2023-04-24T03:38:28;10.00;99.90
28336;DHT22;15592;53.656;7.276;2023-04-24T03:40:54;9.90;99.90
28336;DHT22;15592;53.656;7.276;2023-04-24T03:43:19;10.00;99.90
28336;DHT22;15592;53.656;7.276;2023-04-24T03:45:45;9.90;99.90
28336;DHT22;15592;53.656;7.276;2023-04-24T03:48:11;9.90;99.90
28336;DHT22;15592;53.656;7.276;2023-04-24T03:50:36;9.90;99.90
28336;DHT22;15592;53.656;7.276;2023-04-24T03:53:02;9.90;99.90
28336;DHT22;15592;53.656;7.276;2023-04-24T03:55:27;9.90;99.90
28336;DHT22;15592;53.656;7.276;2023-04-24T03:57:53;9.90;99.90
28336;DHT22;15592;53.656;7.276;2023-04-24T04:00:19;9.90;99.90
28336;DHT22;15592;53.656;7.276;2023-04-24T04:02:44;9.90;99.90
28336;DHT22;15592;53.656;7.276;2023-04-24T04:05:10;9.90;99.90
28336;DHT22;15592;53.656;7.276;2023-04-24T04:07:36;9.90;99.90
28336;DHT22;15592;53.656;7.276;2023-04-24T04:10:01;9.90;99.90
28336;DHT22;15592;53.656;7.276;2023-04-24T04:12:27;9.90;99.90
28336;DHT22;15592;53.656;7.276;2023-04-24T04:14:53;10.00;99.90
28336;DHT22;15592;53.656;7.276;2023-04-24T04:17:18;10.00;99.90
28336;DHT22;15592;53.656;7.276;2023-04-24T04:19:44;10.00;99.90
28336;DHT22;15592;53.656;7.276;2023-04-24T04:22:10;10.00;99.90
28336;DHT22;15592;53.656;7.276;2023-04-24T04:24:35;9.90;99.90
28336;DHT22;15592;53.656;7.276;2023-04-24T04:27:04;10.00;99.90
28336;DHT22;15592;53.656;7.276;2023-04-24T04:29:30;10.00;99.90
28336;DHT22;15592;53.656;7.276;2023-04-24T04:31:57;10.00;99.90
28336;DHT22;15592;53.656;7.276;2023-04-24T04:34:22;10.00;99.90
28336;DHT22;15592;53.656;7.276;2023-04-24T04:36:48;10.00;99.90
28336;DHT22;15592;53.656;7.276;2023-04-24T04:39:14;10.00;99.90
28336;DHT22;15592;53.656;7.276;2023-04-24T04:41:41;10.00;99.90
28336;DHT22;15592;53.656;7.276;2023-04-24T04:44:07;10.00;99.90
28336;DHT22;15592;53.656;7.276;2023-04-24T04:46:34;10.00;99.90
28336;DHT22;15592;53.656;7.276;2023-04-24T04:49:01;10.10;99.90
28336;DHT22;15592;53.656;7.276;2023-04-24T04:51:27;10.10;99.90
28336;DHT22;15592;53.656;7.276;2023-04-24T04:53:53;10.10;99.90
28336;DHT22;15592;53.656;7.276;2023-04-24T04:56:19;10.10;99.90
28336;DHT22;15592;53.656;7.276;2023-04-24T04:58:44;10.10;99.90
28336;DHT22;15592;53.656;7.276;2023-04-24T05:01:10;10.10;99.90
28336;DHT22;15592;53.656;7.276;2023-04-24T05:03:35;10.20;99.90
28336;DHT22;15592;53.656;7.276;2023-04-24T05:06:02;10.20;99.90
28336;DHT22;15592;53.656;7.276;2023-04-24T05:08:28;10.20;99.90
28336;DHT22;15592;53.656;7.276;2023-04-24T05:10:54;10.20;99.90
28336;DHT22;15592;53.656;7.276;2023-04-24T05:13:20;10.20;99.90
28336;DHT22;15592;53.656;7.276;2023-04-24T05:15:46;10.20;99.90
28336;DHT22;15592;53.656;7.276;2023-04-24T05:18:12;10.20;99.90
28336;DHT22;15592;53.656;7.276;2023-04-24T05:20:37;10.20;99.90
28336;DHT22;15592;53.656;7.276;2023-04-24T05:23:03;10.30;99.90
28336;DHT22;15592;53.656;7.276;2023-04-24T05:25:29;10.30;99.90
28336;DHT22;15592;53.656;7.276;2023-04-24T05:27:57;10.30;99.90
28336;DHT22;15592;53.656;7.276;2023-04-24T05:30:23;10.30;99.90
28336;DHT22;15592;53.656;7.276;2023-04-24T05:32:48;10.30;99.90
28336;DHT22;15592;53.656;7.276;2023-04-24T05:35:14;10.30;99.90
28336;DHT22;15592;53.656;7.276;2023-04-24T05:37:39;10.30;99.90
28336;DHT22;15592;53.656;7.276;2023-04-24T05:40:05;10.30;99.90
28336;DHT22;15592;53.656;7.276;2023-04-24T05:42:31;10.30;99.90
28336;DHT22;15592;53.656;7.276;2023-04-24T05:44:57;10.30;99.90
28336;DHT22;15592;53.656;7.276;2023-04-24T05:47:23;10.20;99.90
28336;DHT22;15592;53.656;7.276;2023-04-24T05:49:48;10.10;99.90
28336;DHT22;15592;53.656;7.276;2023-04-24T05:52:14;10.10;99.90
28336;DHT22;15592;53.656;7.276;2023-04-24T05:54:40;10.00;99.90
28336;DHT22;15592;53.656;7.276;2023-04-24T05:57:05;10.00;99.90
28336;DHT22;15592;53.656;7.276;2023-04-24T05:59:39;9.90;99.90
28336;DHT22;15592;53.656;7.276;2023-04-24T06:02:04;9.90;99.90
28336;DHT22;15592;53.656;7.276;2023-04-24T06:04:31;9.90;99.90
28336;DHT22;15592;53.656;7.276;2023-04-24T06:06:56;9.80;99.90
28336;DHT22;15592;53.656;7.276;2023-04-24T06:09:22;9.80;99.90
28336;DHT22;15592;53.656;7.276;2023-04-24T06:11:49;9.80;99.90
28336;DHT22;15592;53.656;7.276;2023-04-24T06:14:15;9.80;99.90
28336;DHT22;15592;53.656;7.276;2023-04-24T06:16:42;9.80;99.90
28336;DHT22;15592;53.656;7.276;2023-04-24T06:19:08;9.80;99.90
28336;DHT22;15592;53.656;7.276;2023-04-24T06:21:33;9.80;99.90
28336;DHT22;15592;53.656;7.276;2023-04-24T06:23:59;9.80;99.90
28336;DHT22;15592;53.656;7.276;2023-04-24T06:26:25;9.80;99.90
28336;DHT22;15592;53.656;7.276;2023-04-24T06:28:52;9.70;99.90
28336;DHT22;15592;53.656;7.276;2023-04-24T06:31:19;9.70;99.90
28336;DHT22;15592;53.656;7.276;2023-04-24T06:33:45;9.80;99.90
28336;DHT22;15592;53.656;7.276;2023-04-24T06:36:12;9.80;99.90
28336;DHT22;15592;53.656;7.276;2023-04-24T06:38:37;9.80;99.90
28336;DHT22;15592;53.656;7.276;2023-04-24T06:41:03;9.80;99.90
28336;DHT22;15592;53.656;7.276;2023-04-24T06:43:31;9.80;99.90
28336;DHT22;15592;53.656;7.276;2023-04-24T06:45:57;9.80;99.90
28336;DHT22;15592;53.656;7.276;2023-04-24T06:48:24;9.90;99.90
28336;DHT22;15592;53.656;7.276;2023-04-24T06:50:49;9.90;99.90
28336;DHT22;15592;53.656;7.276;2023-04-24T06:53:15;10.10;99.90
28336;DHT22;15592;53.656;7.276;2023-04-24T06:55:41;10.10;99.90
28336;DHT22;15592;53.656;7.276;2023-04-24T06:58:07;10.20;99.90
28336;DHT22;15592;53.656;7.276;2023-04-24T07:00:33;10.20;99.90
28336;DHT22;15592;53.656;7.276;2023-04-24T07:02:58;10.30;99.90
28336;DHT22;15592;53.656;7.276;2023-04-24T07:05:24;10.30;99.90
28336;DHT22;15592;53.656;7.276;2023-04-24T07:07:50;10.40;99.90
28336;DHT22;15592;53.656;7.276;2023-04-24T07:10:16;10.50;99.90
28336;DHT22;15592;53.656;7.276;2023-04-24T07:12:42;10.50;99.90
28336;DHT22;15592;53.656;7.276;2023-04-24T07:15:08;10.60;99.90
28336;DHT22;15592;53.656;7.276;2023-04-24T07:17:34;10.60;99.90
28336;DHT22;15592;53.656;7.276;2023-04-24T07:20:00;10.70;99.90
28336;DHT22;15592;53.656;7.276;2023-04-24T07:22:26;10.80;99.90
28336;DHT22;15592;53.656;7.276;2023-04-24T07:24:52;10.80;99.90
28336;DHT22;15592;53.656;7.276;2023-04-24T07:27:17;10.90;99.90
28336;DHT22;15592;53.656;7.276;2023-04-24T07:29:43;10.90;99.90
28336;DHT22;15592;53.656;7.276;2023-04-24T07:32:08;10.90;99.90
28336;DHT22;15592;53.656;7.276;2023-04-24T07:34:34;10.90;99.90
28336;DHT22;15592;53.656;7.276;2023-04-24T07:37:00;10.90;99.90
28336;DHT22;15592;53.656;7.276;2023-04-24T07:39:26;10.90;99.90
28336;DHT22;15592;53.656;7.276;2023-04-24T07:41:51;10.90;99.90
28336;DHT22;15592;53.656;7.276;2023-04-24T07:44:17;10.90;99.90
28336;DHT22;15592;53.656;7.276;2023-04-24T07:46:43;11.00;99.90
28336;DHT22;15592;53.656;7.276;2023-04-24T07:49:08;11.00;99.90
28336;DHT22;15592;53.656;7.276;2023-04-24T07:51:34;11.00;99.90
28336;DHT22;15592;53.656;7.276;2023-04-24T07:54:04;11.00;99.90
28336;DHT22;15592;53.656;7.276;2023-04-24T07:56:31;10.90;99.90
28336;DHT22;15592;53.656;7.276;2023-04-24T07:58:57;10.80;99.90
28336;DHT22;15592;53.656;7.276;2023-04-24T08:01:22;10.80;99.90
28336;DHT22;15592;53.656;7.276;2023-04-24T08:03:48;10.70;99.90
28336;DHT22;15592;53.656;7.276;2023-04-24T08:06:14;10.70;99.90
28336;DHT22;15592;53.656;7.276;2023-04-24T08:08:39;10.60;99.90
28336;DHT22;15592;53.656;7.276;2023-04-24T08:11:05;10.60;99.90
28336;DHT22;15592;53.656;7.276;2023-04-24T08:13:31;10.60;99.90
28336;DHT22;15592;53.656;7.276;2023-04-24T08:15:56;10.60;99.90
28336;DHT22;15592;53.656;7.276;2023-04-24T08:18:22;10.60;99.90
28336;DHT22;15592;53.656;7.276;2023-04-24T08:20:48;10.70;99.90
28336;DHT22;15592;53.656;7.276;2023-04-24T08:23:14;10.70;99.90
28336;DHT22;15592;53.656;7.276;2023-04-24T08:25:39;10.80;99.90
28336;DHT22;15592;53.656;7.276;2023-04-24T08:28:08;10.80;99.90
28336;DHT22;15592;53.656;7.276;2023-04-24T08:30:34;10.80;99.90
28336;DHT22;15592;53.656;7.276;2023-04-24T08:32:59;10.60;99.90
28336;DHT22;15592;53.656;7.276;2023-04-24T08:35:25;10.50;99.90
28336;DHT22;15592;53.656;7.276;2023-04-24T08:37:52;10.40;99.90
28336;DHT22;15592;53.656;7.276;2023-04-24T08:40:25;10.40;99.90
28336;DHT22;15592;53.656;7.276;2023-04-24T08:42:54;10.40;99.90
28336;DHT22;15592;53.656;7.276;2023-04-24T08:45:20;10.30;99.90
28336;DHT22;15592;53.656;7.276;2023-04-24T08:47:47;10.30;99.90
28336;DHT22;15592;53.656;7.276;2023-04-24T08:50:13;10.20;99.90
28336;DHT22;15592;53.656;7.276;2023-04-24T08:52:38;10.20;99.90
28336;DHT22;15592;53.656;7.276;2023-04-24T08:55:05;10.10;99.90
28336;DHT22;15592;53.656;7.276;2023-04-24T08:57:31;10.10;99.90
28336;DHT22;15592;53.656;7.276;2023-04-24T08:59:58;10.10;99.90
28336;DHT22;15592;53.656;7.276;2023-04-24T09:02:25;10.00;99.90
28336;DHT22;15592;53.656;7.276;2023-04-24T09:04:51;10.00;99.90
28336;DHT22;15592;53.656;7.276;2023-04-24T09:07:19;10.00;99.90
28336;DHT22;15592;53.656;7.276;2023-04-24T09:09:45;10.00;99.90
28336;DHT22;15592;53.656;7.276;2023-04-24T09:12:11;10.00;99.90
28336;DHT22;15592;53.656;7.276;2023-04-24T09:14:37;10.00;99.90
28336;DHT22;15592;53.656;7.276;2023-04-24T09:17:10;10.00;99.90
28336;DHT22;15592;53.656;7.276;2023-04-24T09:19:36;10.00;99.90
28336;DHT22;15592;53.656;7.276;2023-04-24T09:22:05;10.00;99.90
28336;DHT22;15592;53.656;7.276;2023-04-24T09:24:31;10.00;99.90
28336;DHT22;15592;53.656;7.276;2023-04-24T09:26:58;10.00;99.90
28336;DHT22;15592;53.656;7.276;2023-04-24T09:29:24;10.00;99.90
28336;DHT22;15592;53.656;7.276;2023-04-24T09:31:50;9.90;99.90
28336;DHT22;15592;53.656;7.276;2023-04-24T09:34:29;9.90;99.90
28336;DHT22;15592;53.656;7.276;2023-04-24T09:36:55;9.90;99.90
28336;DHT22;15592;53.656;7.276;2023-04-24T09:39:21;9.90;99.90
28336;DHT22;15592;53.656;7.276;2023-04-24T09:41:51;9.80;99.90
28336;DHT22;15592;53.656;7.276;2023-04-24T09:44:19;9.90;99.90
28336;DHT22;15592;53.656;7.276;2023-04-24T09:46:51;9.80;99.90
28336;DHT22;15592;53.656;7.276;2023-04-24T09:49:27;9.80;99.90
28336;DHT22;15592;53.656;7.276;2023-04-24T09:52:14;9.80;99.90
28336;DHT22;15592;53.656;7.276;2023-04-24T09:54:40;9.80;99.90
28336;DHT22;15592;53.656;7.276;2023-04-24T09:57:08;9.80;99.90
28336;DHT22;15592;53.656;7.276;2023-04-24T09:59:34;9.90;99.90
28336;DHT22;15592;53.656;7.276;2023-04-24T10:02:00;9.90;99.90
28336;DHT22;15592;53.656;7.276;2023-04-24T10:04:27;9.90;99.90
28336;DHT22;15592;53.656;7.276;2023-04-24T10:06:55;9.90;99.90
28336;DHT22;15592;53.656;7.276;2023-04-24T10:09:24;9.90;99.90
28336;DHT22;15592;53.656;7.276;2023-04-24T10:11:52;9.80;99.90
28336;DHT22;15592;53.656;7.276;2023-04-24T10:14:21;9.90;99.90
28336;DHT22;15592;53.656;7.276;2023-04-24T10:16:47;9.90;99.90
28336;DHT22;15592;53.656;7.276;2023-04-24T10:19:14;9.80;99.90
28336;DHT22;15592;53.656;7.276;2023-04-24T10:21:42;9.80;99.90
28336;DHT22;15592;53.656;7.276;2023-04-24T10:24:08;9.80;99.90
28336;DHT22;15592;53.656;7.276;2023-04-24T10:26:35;9.70;99.90
28336;DHT22;15592;53.656;7.276;2023-04-24T10:29:01;9.80;99.90
28336;DHT22;15592;53.656;7.276;2023-04-24T10:31:31;9.80;99.90
28336;DHT22;15592;53.656;7.276;2023-04-24T10:33:58;9.80;99.90
28336;DHT22;15592;53.656;7.276;2023-04-24T10:36:25;9.80;99.90
28336;DHT22;15592;53.656;7.276;2023-04-24T10:38:54;9.80;99.90
28336;DHT22;15592;53.656;7.276;2023-04-24T10:41:21;9.80;99.90
28336;DHT22;15592;53.656;7.276;2023-04-24T10:46:32;9.80;99.90
28336;DHT22;15592;53.656;7.276;2023-04-24T10:48:58;9.80;99.90
28336;DHT22;15592;53.656;7.276;2023-04-24T10:51:24;9.80;99.90
28336;DHT22;15592;53.656;7.276;2023-04-24T10:54:22;9.80;99.90
28336;DHT22;15592;53.656;7.276;2023-04-24T10:56:49;9.80;99.90
28336;DHT22;15592;53.656;7.276;2023-04-24T10:59:24;9.80;99.90
28336;DHT22;15592;53.656;7.276;2023-04-24T11:01:54;9.80;99.90
28336;DHT22;15592;53.656;7.276;2023-04-24T11:04:32;9.70;99.90
28336;DHT22;15592;53.656;7.276;2023-04-24T11:06:58;9.80;99.90
28336;DHT22;15592;53.656;7.276;2023-04-24T11:09:28;9.70;99.90
28336;DHT22;15592;53.656;7.276;2023-04-24T11:12:09;9.70;99.90
28336;DHT22;15592;53.656;7.276;2023-04-24T11:17:35;9.70;99.90
28336;DHT22;15592;53.656;7.276;2023-04-24T11:20:04;9.80;99.90
28336;DHT22;15592;53.656;7.276;2023-04-24T11:22:33;9.70;99.90
28336;DHT22;15592;53.656;7.276;2023-04-24T11:25:01;9.80;99.90
28336;DHT22;15592;53.656;7.276;2023-04-24T11:27:30;9.80;99.90
28336;DHT22;15592;53.656;7.276;2023-04-24T11:32:40;9.70;99.90
28336;DHT22;15592;53.656;7.276;2023-04-24T11:35:20;9.80;99.90
28336;DHT22;15592;53.656;7.276;2023-04-24T11:37:54;9.80;99.90
28336;DHT22;15592;53.656;7.276;2023-04-24T11:40:21;9.90;99.90
28336;DHT22;15592;53.656;7.276;2023-04-24T11:42:54;9.90;99.90
28336;DHT22;15592;53.656;7.276;2023-04-24T11:45:27;9.90;99.90
28336;DHT22;15592;53.656;7.276;2023-04-24T11:47:53;9.90;99.90
28336;DHT22;15592;53.656;7.276;2023-04-24T11:50:21;9.90;99.90
28336;DHT22;15592;53.656;7.276;2023-04-24T11:52:49;9.90;99.90
28336;DHT22;15592;53.656;7.276;2023-04-24T11:57:46;9.90;99.90
28336;DHT22;15592;53.656;7.276;2023-04-24T12:02:42;9.90;99.90
28336;DHT22;15592;53.656;7.276;2023-04-24T12:05:08;9.90;99.90
28336;DHT22;15592;53.656;7.276;2023-04-24T12:07:41;9.80;99.90
28336;DHT22;15592;53.656;7.276;2023-04-24T12:10:10;9.80;99.90
28336;DHT22;15592;53.656;7.276;2023-04-24T12:12:35;9.90;99.90
28336;DHT22;15592;53.656;7.276;2023-04-24T12:15:05;9.90;99.90
28336;DHT22;15592;53.656;7.276;2023-04-24T12:17:32;9.90;99.90
28336;DHT22;15592;53.656;7.276;2023-04-24T12:20:00;9.80;99.90
28336;DHT22;15592;53.656;7.276;2023-04-24T12:22:26;9.80;99.90
28336;DHT22;15592;53.656;7.276;2023-04-24T12:25:04;9.90;99.90
28336;DHT22;15592;53.656;7.276;2023-04-24T12:27:32;9.90;99.90
28336;DHT22;15592;53.656;7.276;2023-04-24T12:29:59;9.90;99.90
28336;DHT22;15592;53.656;7.276;2023-04-24T12:32:26;10.00;99.90
28336;DHT22;15592;53.656;7.276;2023-04-24T12:34:55;10.00;99.90
28336;DHT22;15592;53.656;7.276;2023-04-24T12:37:26;10.00;99.90
28336;DHT22;15592;53.656;7.276;2023-04-24T12:40:09;10.00;99.90
28336;DHT22;15592;53.656;7.276;2023-04-24T12:42:36;9.90;99.90
28336;DHT22;15592;53.656;7.276;2023-04-24T12:45:07;9.90;99.90
28336;DHT22;15592;53.656;7.276;2023-04-24T12:47:34;10.00;99.90
28336;DHT22;15592;53.656;7.276;2023-04-24T12:50:00;10.10;99.90
28336;DHT22;15592;53.656;7.276;2023-04-24T12:52:28;10.20;99.90
28336;DHT22;15592;53.656;7.276;2023-04-24T12:54:55;10.30;99.90
28336;DHT22;15592;53.656;7.276;2023-04-24T12:57:22;10.30;99.90
28336;DHT22;15592;53.656;7.276;2023-04-24T12:59:48;10.40;99.90
28336;DHT22;15592;53.656;7.276;2023-04-24T13:02:14;10.40;99.90
28336;DHT22;15592;53.656;7.276;2023-04-24T13:04:44;10.50;99.90
28336;DHT22;15592;53.656;7.276;2023-04-24T13:07:10;10.50;99.90
28336;DHT22;15592;53.656;7.276;2023-04-24T13:09:35;10.50;99.90
28336;DHT22;15592;53.656;7.276;2023-04-24T13:12:01;10.50;99.90
28336;DHT22;15592;53.656;7.276;2023-04-24T13:14:27;10.60;99.90
28336;DHT22;15592;53.656;7.276;2023-04-24T13:16:53;10.60;99.90
28336;DHT22;15592;53.656;7.276;2023-04-24T13:19:18;10.60;99.90
28336;DHT22;15592;53.656;7.276;2023-04-24T13:21:44;10.70;99.90
28336;DHT22;15592;53.656;7.276;2023-04-24T13:24:10;10.80;99.90
28336;DHT22;15592;53.656;7.276;2023-04-24T13:26:35;10.90;99.90
28336;DHT22;15592;53.656;7.276;2023-04-24T13:29:01;10.90;99.90
28336;DHT22;15592;53.656;7.276;2023-04-24T13:31:26;10.90;99.90
28336;DHT22;15592;53.656;7.276;2023-04-24T13:33:52;10.90;99.90
28336;DHT22;15592;53.656;7.276;2023-04-24T13:36:17;10.80;99.90
28336;DHT22;15592;53.656;7.276;2023-04-24T13:38:46;10.90;99.90
28336;DHT22;15592;53.656;7.276;2023-04-24T13:41:12;10.90;99.90
28336;DHT22;15592;53.656;7.276;2023-04-24T13:43:37;10.90;99.90
28336;DHT22;15592;53.656;7.276;2023-04-24T13:46:03;11.00;99.90
28336;DHT22;15592;53.656;7.276;2023-04-24T13:48:29;11.00;99.90
28336;DHT22;15592;53.656;7.276;2023-04-24T13:50:55;11.00;99.90
28336;DHT22;15592;53.656;7.276;2023-04-24T13:53:21;11.10;99.90
28336;DHT22;15592;53.656;7.276;2023-04-24T13:55:47;11.10;99.90
28336;DHT22;15592;53.656;7.276;2023-04-24T13:58:13;11.10;99.90
28336;DHT22;15592;53.656;7.276;2023-04-24T14:00:39;11.00;99.90
28336;DHT22;15592;53.656;7.276;2023-04-24T14:03:04;11.00;99.90
28336;DHT22;15592;53.656;7.276;2023-04-24T14:05:30;11.00;99.90
28336;DHT22;15592;53.656;7.276;2023-04-24T14:07:55;10.90;99.90
28336;DHT22;15592;53.656;7.276;2023-04-24T14:10:21;10.90;99.90
28336;DHT22;15592;53.656;7.276;2023-04-24T14:12:46;10.80;99.90
28336;DHT22;15592;53.656;7.276;2023-04-24T14:15:12;10.80;99.90
28336;DHT22;15592;53.656;7.276;2023-04-24T14:17:39;10.80;99.90
28336;DHT22;15592;53.656;7.276;2023-04-24T14:20:05;10.80;99.90
28336;DHT22;15592;53.656;7.276;2023-04-24T14:22:31;10.80;99.90
28336;DHT22;15592;53.656;7.276;2023-04-24T14:24:56;10.70;99.90
28336;DHT22;15592;53.656;7.276;2023-04-24T14:27:23;10.70;99.90
28336;DHT22;15592;53.656;7.276;2023-04-24T14:29:49;10.70;99.90
28336;DHT22;15592;53.656;7.276;2023-04-24T14:32:15;10.60;99.90
28336;DHT22;15592;53.656;7.276;2023-04-24T14:34:41;10.60;99.90
28336;DHT22;15592;53.656;7.276;2023-04-24T14:37:07;10.60;99.90
28336;DHT22;15592;53.656;7.276;2023-04-24T14:39:33;10.50;99.90
28336;DHT22;15592;53.656;7.276;2023-04-24T14:41:58;10.50;99.90
28336;DHT22;15592;53.656;7.276;2023-04-24T14:44:24;10.40;99.90
28336;DHT22;15592;53.656;7.276;2023-04-24T14:46:50;10.40;99.90
28336;DHT22;15592;53.656;7.276;2023-04-24T14:49:16;10.30;99.90
28336;DHT22;15592;53.656;7.276;2023-04-24T14:51:42;10.20;99.90
28336;DHT22;15592;53.656;7.276;2023-04-24T14:54:08;10.20;99.90
28336;DHT22;15592;53.656;7.276;2023-04-24T14:56:34;10.10;99.90
28336;DHT22;15592;53.656;7.276;2023-04-24T14:59:00;10.10;99.90
28336;DHT22;15592;53.656;7.276;2023-04-24T15:01:26;10.10;99.90
28336;DHT22;15592;53.656;7.276;2023-04-24T15:03:51;10.10;99.90
28336;DHT22;15592;53.656;7.276;2023-04-24T15:06:17;10.20;99.90
28336;DHT22;15592;53.656;7.276;2023-04-24T15:08:42;10.20;99.90
28336;DHT22;15592;53.656;7.276;2023-04-24T15:11:10;10.20;99.90
28336;DHT22;15592;53.656;7.276;2023-04-24T15:13:35;10.30;99.90
28336;DHT22;15592;53.656;7.276;2023-04-24T15:16:01;10.30;99.90
28336;DHT22;15592;53.656;7.276;2023-04-24T15:18:27;10.30;99.90
28336;DHT22;15592;53.656;7.276;2023-04-24T15:20:54;10.30;99.90
28336;DHT22;15592;53.656;7.276;2023-04-24T15:23:20;10.30;99.90
28336;DHT22;15592;53.656;7.276;2023-04-24T15:25:46;10.30;99.90
28336;DHT22;15592;53.656;7.276;2023-04-24T15:28:12;10.30;99.90
28336;DHT22;15592;53.656;7.276;2023-04-24T15:30:37;10.30;99.90
28336;DHT22;15592;53.656;7.276;2023-04-24T15:33:03;10.30;99.90
28336;DHT22;15592;53.656;7.276;2023-04-24T15:35:29;10.20;99.90
28336;DHT22;15592;53.656;7.276;2023-04-24T15:37:55;10.30;99.90
28336;DHT22;15592;53.656;7.276;2023-04-24T15:40:21;10.20;99.90
28336;DHT22;15592;53.656;7.276;2023-04-24T15:42:48;10.20;99.90
28336;DHT22;15592;53.656;7.276;2023-04-24T15:45:13;10.20;99.90